Toccopola, Mississippi
Current Conditions -  °F | °C
As of 9:35 PM on Saturday 22 Nov 2014 (Local Time) from KUOX Reporting Station
Scattered Clouds Scattered Clouds  
Wind Chill: 55°   Ceiling: Unl
Heat Index: 55°   Visibility: 10mi
Dew Point: 46°   Wind: 8mph
Humidity: 72%   Direction: 150°SSE
Pressure: 30.03"   Gusts: NA
Location:  34.26°N, 89.24°W
Report Text: KUOX 230335Z AUTO 15007KT 10SM SCT040 13/08 A3003 RMK AO2 PWINO PNO
Loading
Personal Weather Stations






























Interactive Weather Map New forecast layout! Learn more

10-Day Weather Forecast

Advertisements
Track Severe Weather on mobile